Marbella — IBSR — position and weather

sailwx.info

Track history (hours):
 
Tides and Currents Weather Stations Pressure Air Temp Water Temp Dewpoint Dewpoint Depression Visibility Wind Speed Wind Dir Waves Ship Positions

Marbella

Last reported at 2018-Jun-16 12:42 UTC. Time now 2018-Jun-18 11:43 UTC.
Position N 42°56' E 010°33'.

Length 108 m; draft 7.4 m.

Type: Cargo ship. MMSI: 247386700.

Date/timePositionNaut miles runAvg speedWind from/ knotsBaromVisibWave heightAir tempDewpointWater temp
2018-Jun-16 12:42N 42°56' E 010°33'0 2.0
2018-Jun-16 12:31N 42°56' E 010°34'147 9.9
2018-Jun-15 21:41N 41°11' E 012°54'211.3
2018-Jun-15 21:30N 41°10' E 012°56'611.0
2018-Jun-15 21:00N 41°07' E 013°02'510.8
2018-Jun-15 20:30N 41°04' E 013°07'511.0
2018-Jun-15 20:00N 41°01' E 013°13'510.8
2018-Jun-15 19:30N 40°57' E 013°19'810.8
2018-Jun-15 18:44N 40°52' E 013°28'310.7
2018-Jun-15 18:30N 40°51' E 013°30'510.8
2018-Jun-15 18:00N 40°48' E 013°36'510.8
2018-Jun-15 17:30N 40°44' E 013°42'510.4
2018-Jun-15 17:00N 40°41' E 013°47'510.4
2018-Jun-15 16:30N 40°36' E 013°50'510.4
2018-Jun-15 16:00N 40°32' E 013°54'1010.5
2018-Jun-15 15:03N 40°23' E 014°01'110.2
2018-Jun-15 15:00N 40°23' E 014°01'11610.9
2018-Jun-15 04:21N 38°45' E 015°22'611.0
2018-Jun-15 03:51N 38°40' E 015°25'2311.0
2018-Jun-15 01:45N 38°20' E 015°41'310.5
2018-Jun-15 01:30N 38°18' E 015°42'4 9.0
2018-Jun-15 01:00N 38°14' E 015°38'5 9.1
2018-Jun-15 00:29N 38°10' E 015°37'510.2
2018-Jun-14 23:57N 38°04' E 015°35'1611.4
2018-Jun-14 22:36N 37°49' E 015°29'  
2018-Jun-10 07:15N 37°20' E 015°25'312.6
2018-Jun-10 06:59N 37°23' E 015°28'912.4
2018-Jun-10 06:14N 37°29' E 015°37'312.4
2018-Jun-10 05:58N 37°31' E 015°40'1912.3
2018-Jun-10 04:25N 37°45' E 015°56'  
2018-Jun-07 09:13N 37°53' E 015°52'210.4
2018-Jun-07 09:00N 37°53' E 015°49'510.5
2018-Jun-07 08:30N 37°54' E 015°42'611.3
2018-Jun-07 08:00N 37°58' E 015°37'611.0
2018-Jun-07 07:29N 38°03' E 015°35'613.4
2018-Jun-07 07:00N 38°09' E 015°35'912.0
2018-Jun-07 06:17N 38°17' E 015°40'312.0
2018-Jun-07 06:00N 38°20' E 015°39'612.2
2018-Jun-07 05:29N 38°26' E 015°35'14311.9
2018-Jun-06 17:26N 40°29' E 013°59'  
Track history (hours):
 
Tides and Currents Weather Stations Pressure Air Temp Water Temp Dewpoint Dewpoint Depression Visibility Wind Speed Wind Dir Waves Ship Positions

Marbella

Last reported at 2018-Jun-16 12:42 UTC. Time now 2018-Jun-18 11:43 UTC.
Position N 42°56' E 010°33'.

Length 108 m; draft 7.4 m.

Type: Cargo ship. MMSI: 247386700.

Date/timePositionNaut miles runAvg speedWind from/ knotsBaromVisibWave heightAir tempDewpointWater temp
2018-Jun-16 12:42N 42°56' E 010°33'0 2.0
2018-Jun-16 12:31N 42°56' E 010°34'147 9.9
2018-Jun-15 21:41N 41°11' E 012°54'211.3
2018-Jun-15 21:30N 41°10' E 012°56'611.0
2018-Jun-15 21:00N 41°07' E 013°02'510.8
2018-Jun-15 20:30N 41°04' E 013°07'511.0
2018-Jun-15 20:00N 41°01' E 013°13'510.8
2018-Jun-15 19:30N 40°57' E 013°19'810.8
2018-Jun-15 18:44N 40°52' E 013°28'310.7
2018-Jun-15 18:30N 40°51' E 013°30'510.8
2018-Jun-15 18:00N 40°48' E 013°36'510.8
2018-Jun-15 17:30N 40°44' E 013°42'510.4
2018-Jun-15 17:00N 40°41' E 013°47'510.4
2018-Jun-15 16:30N 40°36' E 013°50'510.4
2018-Jun-15 16:00N 40°32' E 013°54'1010.5
2018-Jun-15 15:03N 40°23' E 014°01'110.2
2018-Jun-15 15:00N 40°23' E 014°01'11610.9
2018-Jun-15 04:21N 38°45' E 015°22'611.0
2018-Jun-15 03:51N 38°40' E 015°25'2311.0
2018-Jun-15 01:45N 38°20' E 015°41'310.5
2018-Jun-15 01:30N 38°18' E 015°42'4 9.0
2018-Jun-15 01:00N 38°14' E 015°38'5 9.1
2018-Jun-15 00:29N 38°10' E 015°37'510.2
2018-Jun-14 23:57N 38°04' E 015°35'1611.4
2018-Jun-14 22:36N 37°49' E 015°29'  
2018-Jun-10 07:15N 37°20' E 015°25'312.6
2018-Jun-10 06:59N 37°23' E 015°28'912.4
2018-Jun-10 06:14N 37°29' E 015°37'312.4
2018-Jun-10 05:58N 37°31' E 015°40'1912.3
2018-Jun-10 04:25N 37°45' E 015°56'  
2018-Jun-07 09:13N 37°53' E 015°52'210.4
2018-Jun-07 09:00N 37°53' E 015°49'510.5
2018-Jun-07 08:30N 37°54' E 015°42'611.3
2018-Jun-07 08:00N 37°58' E 015°37'611.0
2018-Jun-07 07:29N 38°03' E 015°35'613.4
2018-Jun-07 07:00N 38°09' E 015°35'912.0
2018-Jun-07 06:17N 38°17' E 015°40'312.0
2018-Jun-07 06:00N 38°20' E 015°39'612.2
2018-Jun-07 05:29N 38°26' E 015°35'14311.9
2018-Jun-06 17:26N 40°29' E 013°59'  

Dump ship's entire track history